createdAt,value
2019-01-26T00:02:04.405Z,14.59
2019-01-26T00:07:12.261Z,16.26
2019-01-26T00:12:19.962Z,16.30
2019-01-26T00:17:27.577Z,15.41
2019-01-26T00:22:35.277Z,17.52
2019-01-26T00:27:43.181Z,15.79
2019-01-26T00:32:50.894Z,17.06
2019-01-26T00:37:58.522Z,18.21
2019-01-26T00:43:07.133Z,17.89
2019-01-26T00:48:14.885Z,19.49
2019-01-26T00:53:22.625Z,17.50
2019-01-26T00:58:30.595Z,19.82
2019-01-26T01:03:38.512Z,17.24
2019-01-26T01:08:46.177Z,16.80
2019-01-26T01:13:53.846Z,17.18
2019-01-26T01:19:01.547Z,16.99
2019-01-26T01:24:09.673Z,17.41
2019-01-26T01:29:17.429Z,16.48
2019-01-26T01:34:25.105Z,16.75
2019-01-26T01:39:32.924Z,17.98
2019-01-26T01:44:40.509Z,18.22
2019-01-26T01:49:48.261Z,26.31
2019-01-26T01:54:56.050Z,19.16
2019-01-26T02:00:03.719Z,28.06
2019-01-26T02:05:11.401Z,18.06
2019-01-26T02:10:19.068Z,18.12
2019-01-26T02:15:26.853Z,16.45
2019-01-26T02:20:34.506Z,17.52
2019-01-26T02:25:42.385Z,18.25
2019-01-26T02:30:50.377Z,18.64
2019-01-26T02:35:58.029Z,17.33
2019-01-26T02:41:05.701Z,17.72
2019-01-26T02:46:13.526Z,18.45
2019-01-26T02:51:21.345Z,17.98
2019-01-26T02:56:29.185Z,18.65
2019-01-26T03:01:36.846Z,16.78
2019-01-26T03:06:44.577Z,17.38
2019-01-26T03:11:52.481Z,15.80
2019-01-26T03:17:05.908Z,15.50
2019-01-26T03:22:07.597Z,16.80
2019-01-26T03:27:15.443Z,15.84
2019-01-26T03:32:23.240Z,14.50
2019-01-26T03:37:31.106Z,15.46
2019-01-26T03:42:38.878Z,14.79
2019-01-26T03:47:46.709Z,14.55
2019-01-26T03:52:54.565Z,16.49
2019-01-26T03:58:02.424Z,15.05
2019-01-26T04:03:10.142Z,13.57
2019-01-26T04:08:17.982Z,14.10
2019-01-26T04:13:25.589Z,14.69
2019-01-26T04:18:33.478Z,11.77
2019-01-26T04:23:41.142Z,10.23
2019-01-26T04:28:48.962Z,10.64
2019-01-26T04:33:56.610Z,9.85
2019-01-26T04:39:04.242Z,9.64
2019-01-26T04:44:11.988Z,9.08
2019-01-26T04:49:19.674Z,9.21
2019-01-26T04:54:27.374Z,8.06
2019-01-26T04:59:35.308Z,6.54
2019-01-26T05:04:43.010Z,6.66
2019-01-26T05:09:50.926Z,6.60
2019-01-26T05:14:58.623Z,6.42
2019-01-26T05:20:06.513Z,7.15
2019-01-26T05:25:14.352Z,6.80
2019-01-26T05:30:22.330Z,6.37
2019-01-26T05:35:30.838Z,5.64
2019-01-26T05:40:38.691Z,6.00
2019-01-26T05:45:46.251Z,5.25
2019-01-26T05:50:54.078Z,6.06
2019-01-26T05:56:01.689Z,5.83
2019-01-26T06:01:09.501Z,6.00
2019-01-26T06:06:17.290Z,5.38
2019-01-26T06:11:25.850Z,5.71
2019-01-26T06:16:46.886Z,6.75
2019-01-26T06:21:34.934Z,6.51
2019-01-26T06:26:42.527Z,6.53
2019-01-26T06:31:50.429Z,6.61
2019-01-26T06:36:58.173Z,6.59
2019-01-26T06:42:06.458Z,7.31
2019-01-26T06:47:14.097Z,7.22
2019-01-26T06:52:21.884Z,7.05
2019-01-26T06:57:29.554Z,7.39
2019-01-26T07:02:37.331Z,7.69
2019-01-26T07:07:45.168Z,8.90
2019-01-26T07:12:53.077Z,8.79
2019-01-26T07:18:00.731Z,8.63
2019-01-26T07:23:08.457Z,9.82
2019-01-26T07:28:16.209Z,10.29
2019-01-26T07:33:23.853Z,11.69
2019-01-26T07:38:31.551Z,11.60
2019-01-26T07:43:39.311Z,11.72
2019-01-26T07:48:46.950Z,11.67
2019-01-26T07:53:55.817Z,11.05
2019-01-26T07:59:03.430Z,10.46
2019-01-26T08:04:11.192Z,9.53
2019-01-26T08:09:19.057Z,9.58
2019-01-26T08:14:26.930Z,9.95
2019-01-26T08:19:34.846Z,10.61
2019-01-26T08:24:44.603Z,11.79
2019-01-26T08:29:50.357Z,11.83
2019-01-26T08:34:58.301Z,11.29
2019-01-26T08:40:06.100Z,19.11
2019-01-26T08:45:13.782Z,12.87
2019-01-26T08:50:21.392Z,13.54
2019-01-26T08:55:29.150Z,14.27
2019-01-26T09:00:36.986Z,15.31
2019-01-26T09:05:45.373Z,13.83
2019-01-26T09:10:53.048Z,14.69
2019-01-26T09:16:00.992Z,14.46
2019-01-26T09:21:08.642Z,14.35
2019-01-26T09:26:16.326Z,13.29
2019-01-26T09:31:24.103Z,13.99
2019-01-26T09:36:32.012Z,13.20
2019-01-26T09:41:39.689Z,12.42
2019-01-26T09:46:47.646Z,12.89
2019-01-26T09:51:55.373Z,12.48
2019-01-26T09:57:03.102Z,13.10
2019-01-26T10:02:10.723Z,12.90
2019-01-26T10:07:18.420Z,12.00
2019-01-26T10:12:26.209Z,11.65
2019-01-26T10:17:33.970Z,12.30
2019-01-26T10:22:41.653Z,11.96
2019-01-26T10:27:49.584Z,11.65
2019-01-26T10:32:57.193Z,11.85
2019-01-26T10:38:05.032Z,11.42
2019-01-26T10:43:13.109Z,10.16
2019-01-26T10:48:20.850Z,11.01
2019-01-26T10:53:28.525Z,10.65
2019-01-26T10:58:36.277Z,10.10
2019-01-26T11:03:44.233Z,10.78
2019-01-26T11:08:52.008Z,10.33
2019-01-26T11:13:59.673Z,10.77
2019-01-26T11:19:07.936Z,11.93
2019-01-26T11:24:14.609Z,13.23
2019-01-26T11:29:22.202Z,13.20
2019-01-26T11:34:29.886Z,11.34
2019-01-26T11:39:37.873Z,10.50
2019-01-26T11:44:45.745Z,10.72
2019-01-26T11:49:53.657Z,8.35
2019-01-26T11:55:01.407Z,8.17
2019-01-26T12:00:09.054Z,7.68
2019-01-26T12:05:16.865Z,7.18
2019-01-26T12:10:24.712Z,6.94
2019-01-26T12:15:32.415Z,6.80
2019-01-26T12:20:40.182Z,6.81
2019-01-26T12:25:47.843Z,6.40
2019-01-26T12:30:55.557Z,5.64
2019-01-26T12:36:03.302Z,5.93
2019-01-26T12:41:11.001Z,5.34
2019-01-26T12:46:18.737Z,5.17
2019-01-26T12:51:26.546Z,5.26
2019-01-26T12:56:34.247Z,5.03
2019-01-26T13:01:42.758Z,4.77
2019-01-26T13:06:51.162Z,4.83
2019-01-26T13:11:58.847Z,4.58
2019-01-26T13:17:22.897Z,4.80
2019-01-26T13:22:13.438Z,4.63
2019-01-26T13:27:11.347Z,4.83
2019-01-26T13:32:18.947Z,3.95
2019-01-26T13:37:26.847Z,4.25
2019-01-26T13:42:34.526Z,4.06
2019-01-26T13:47:42.190Z,6.91
2019-01-26T13:52:49.966Z,5.32
2019-01-26T13:57:57.754Z,5.55
2019-01-26T14:03:05.419Z,5.91
2019-01-26T14:08:13.833Z,7.05
2019-01-26T14:13:21.529Z,6.96
2019-01-26T14:18:29.261Z,7.94
2019-01-26T14:23:36.938Z,8.15
2019-01-26T14:28:44.682Z,8.80
2019-01-26T14:33:53.165Z,8.33
2019-01-26T14:39:01.655Z,8.91
2019-01-26T14:44:09.221Z,8.44
2019-01-26T14:49:16.993Z,8.48
2019-01-26T14:54:24.818Z,8.87
2019-01-26T14:59:32.527Z,8.97
2019-01-26T15:04:40.232Z,8.84
2019-01-26T15:09:47.995Z,9.03
2019-01-26T15:14:55.791Z,9.96
2019-01-26T15:20:06.084Z,10.31
2019-01-26T15:25:12.058Z,11.05
2019-01-26T15:30:19.894Z,10.93
2019-01-26T15:35:27.915Z,12.52
2019-01-26T15:40:35.750Z,12.87
2019-01-26T15:45:44.460Z,13.96
2019-01-26T15:50:52.243Z,13.38
2019-01-26T15:56:01.050Z,13.32
2019-01-26T16:01:09.295Z,13.61
2019-01-26T16:06:17.032Z,13.68
2019-01-26T16:11:24.713Z,13.58
2019-01-26T16:16:33.700Z,13.36
2019-01-26T16:21:41.726Z,13.04
2019-01-26T16:26:49.617Z,13.77
2019-01-26T16:31:57.233Z,14.44
2019-01-26T16:37:05.208Z,13.73
2019-01-26T16:42:14.281Z,13.69
2019-01-26T16:47:23.025Z,12.81
2019-01-26T16:52:30.641Z,13.42
2019-01-26T16:57:38.333Z,13.48
2019-01-26T17:02:46.029Z,13.98
2019-01-26T17:07:53.884Z,13.60
2019-01-26T17:13:01.745Z,14.45
2019-01-26T17:18:13.684Z,14.58
2019-01-26T17:23:16.910Z,14.50
2019-01-26T17:28:24.861Z,14.96
2019-01-26T17:33:32.510Z,15.08
2019-01-26T17:38:42.565Z,15.51
2019-01-26T17:43:41.448Z,15.90
2019-01-26T17:48:49.681Z,15.64
2019-01-26T17:53:57.441Z,15.24
2019-01-26T17:59:07.581Z,16.06
2019-01-26T18:04:05.248Z,15.08
2019-01-26T18:09:12.977Z,14.34
2019-01-26T18:14:20.680Z,14.74
2019-01-26T18:19:28.530Z,14.39
2019-01-26T18:24:36.203Z,14.45
2019-01-26T18:29:44.305Z,14.61
2019-01-26T18:34:52.045Z,13.81
2019-01-26T18:39:59.721Z,13.35
2019-01-26T18:45:08.489Z,12.10
2019-01-26T18:50:16.137Z,12.50
2019-01-26T18:55:23.877Z,12.51
2019-01-26T19:00:32.993Z,11.20
2019-01-26T19:05:40.650Z,11.23
2019-01-26T19:10:48.366Z,11.15
2019-01-26T19:15:56.425Z,11.26
2019-01-26T19:21:04.229Z,12.13
2019-01-26T19:26:11.858Z,12.32
2019-01-26T19:31:19.733Z,12.46
2019-01-26T19:36:27.805Z,13.02
2019-01-26T19:41:35.979Z,13.32
2019-01-26T19:46:43.835Z,13.46
2019-01-26T19:51:52.179Z,13.53
2019-01-26T19:57:00.052Z,14.10
2019-01-26T20:02:07.833Z,14.49
2019-01-26T20:07:15.478Z,13.81
2019-01-26T20:12:23.515Z,13.85
2019-01-26T20:17:33.370Z,14.17
2019-01-26T20:22:41.562Z,14.73
2019-01-26T20:27:49.375Z,15.23
2019-01-26T20:32:57.182Z,15.56
2019-01-26T20:38:05.168Z,14.97
2019-01-26T20:43:13.508Z,16.14
2019-01-26T20:48:21.267Z,16.13
2019-01-26T20:53:29.017Z,16.04
2019-01-26T20:58:36.997Z,15.99
2019-01-26T21:03:44.737Z,16.87
2019-01-26T21:08:52.557Z,16.59
2019-01-26T21:14:00.385Z,16.97
2019-01-26T21:19:08.244Z,17.09
2019-01-26T21:24:15.909Z,16.51
2019-01-26T21:29:23.597Z,17.28
2019-01-26T21:34:31.432Z,16.48
2019-01-26T21:39:39.090Z,17.61
2019-01-26T21:44:46.956Z,17.42
2019-01-26T21:49:54.931Z,16.97
2019-01-26T21:55:03.496Z,17.22
2019-01-26T22:00:11.514Z,18.63
2019-01-26T22:05:19.532Z,18.26
2019-01-26T22:10:27.903Z,19.32
2019-01-26T22:15:37.030Z,18.25
2019-01-26T22:20:46.435Z,19.47
2019-01-26T22:25:54.457Z,17.93
2019-01-26T22:31:02.802Z,18.57
2019-01-26T22:36:11.274Z,17.27
2019-01-26T22:41:19.051Z,17.49
2019-01-26T22:46:26.872Z,16.71
2019-01-26T22:51:35.879Z,15.43
2019-01-26T22:56:43.761Z,15.24
2019-01-26T23:01:51.983Z,15.39
2019-01-26T23:07:01.227Z,14.86
2019-01-26T23:12:09.040Z,14.58
2019-01-26T23:17:16.976Z,14.01
2019-01-26T23:22:25.986Z,14.82
2019-01-26T23:27:33.951Z,14.18
2019-01-26T23:32:42.002Z,13.94
2019-01-26T23:37:49.873Z,14.12
2019-01-26T23:42:58.013Z,13.61
2019-01-26T23:48:06.167Z,13.64
2019-01-26T23:53:16.870Z,13.20
2019-01-26T23:58:15.824Z,13.04
